Time;durP1;ratioP1;P1;durP2;ratioP2;P2;SDS_P1;SDS_P2;PMS_P1;PMS_P2;Temp;Humidity;BMP_temperature;BMP_pressure;BME280_temperature;BME280_humidity;BME280_pressure;Samples;Min_cycle;Max_cycle;Signal;HPM_P1;HPM_P2
2023/12/11 00:00:04;;;;;;;0.93;0.55;;;;;;;;;;5021366;28;20029;-86
2023/12/11 00:02:30;;;;;;;1.20;0.50;;;;;;;;;;5033959;28;20116;-84
2023/12/11 00:04:55;;;;;;;1.55;0.77;;;;;;;;;;5035544;28;20472;-86
2023/12/11 00:07:21;;;;;;;1.55;0.73;;;;;;;;;;5040019;28;20111;-86
2023/12/11 00:09:46;;;;;;;2.25;0.90;;;;;;;;;;5042338;28;20045;-86
2023/12/11 00:12:12;;;;;;;2.72;0.77;;;;;;;;;;5046738;28;20071;-86
2023/12/11 00:14:37;;;;;;;2.55;0.70;;;;;;;;;;5039146;28;20055;-86
2023/12/11 00:17:03;;;;;;;2.35;0.80;;;;;;;;;;5041855;28;20033;-85
2023/12/11 00:19:28;;;;;;;1.50;0.80;;;;;;;;;;5041926;28;20044;-86
2023/12/11 00:21:54;;;;;;;1.13;0.70;;;;;;;;;;5043938;28;20060;-87
2023/12/11 00:24:19;;;;;;;2.90;0.88;;;;;;;;;;5039697;28;20039;-86
2023/12/11 00:26:45;;;;;;;2.65;0.80;;;;;;;;;;5043496;28;20041;-86
2023/12/11 00:29:11;;;;;;;2.00;0.80;;;;;;;;;;5038682;28;20037;-86
2023/12/11 00:31:36;;;;;;;1.85;0.70;;;;;;;;;;5034330;28;20028;-86
2023/12/11 00:34:02;;;;;;;3.03;0.80;;;;;;;;;;5047000;28;20029;-86
2023/12/11 00:36:27;;;;;;;4.03;0.98;;;;;;;;;;5038238;28;20045;-86
2023/12/11 00:38:53;;;;;;;1.80;1.08;;;;;;;;;;5038044;28;20119;-86
2023/12/11 00:41:18;;;;;;;3.30;0.80;;;;;;;;;;5043789;28;20036;-86
2023/12/11 00:43:44;;;;;;;3.83;1.25;;;;;;;;;;5043103;28;20029;-86
2023/12/11 00:46:22;;;;;;;2.90;0.80;;;;;;;;;;5041633;28;20029;-86
2023/12/11 00:48:49;;;;;;;1.50;0.65;;;;;;;;;;5039109;28;20030;-86
2023/12/11 00:51:18;;;;;;;0.93;0.60;;;;;;;;;;5039717;28;20033;-86
2023/12/11 00:53:48;;;;;;;1.52;0.60;;;;;;;;;;5045623;28;20052;-86
2023/12/11 00:56:16;;;;;;;2.03;0.70;;;;;;;;;;5041176;28;20045;-86
2023/12/11 00:58:42;;;;;;;1.77;0.60;;;;;;;;;;5040196;28;20041;-85
2023/12/11 01:01:08;;;;;;;1.77;0.70;;;;;;;;;;5039867;28;20179;-86
2023/12/11 01:03:35;;;;;;;1.65;0.60;;;;;;;;;;5043035;28;20091;-86
2023/12/11 01:06:00;;;;;;;0.70;0.50;;;;;;;;;;5046225;28;20033;-85
2023/12/11 01:08:27;;;;;;;1.23;0.75;;;;;;;;;;5046222;28;20045;-86
2023/12/11 01:10:57;;;;;;;2.08;0.75;;;;;;;;;;5044854;28;20041;-86
2023/12/11 01:13:23;;;;;;;3.38;0.75;;;;;;;;;;5048061;28;20029;-86
2023/12/11 01:15:49;;;;;;;2.72;0.70;;;;;;;;;;5048581;28;20021;-87
2023/12/11 01:18:14;;;;;;;2.85;0.90;;;;;;;;;;5045451;28;20514;-86
2023/12/11 01:20:40;;;;;;;2.63;0.85;;;;;;;;;;5038893;28;20093;-86
2023/12/11 01:23:05;;;;;;;2.80;0.80;;;;;;;;;;5044571;28;20033;-86
2023/12/11 01:25:31;;;;;;;1.30;0.73;;;;;;;;;;5046128;28;20048;-86
2023/12/11 01:27:57;;;;;;;2.88;0.70;;;;;;;;;;5043311;28;20056;-86
2023/12/11 01:30:23;;;;;;;3.05;0.70;;;;;;;;;;5039492;28;20029;-87
2023/12/11 01:32:49;;;;;;;2.90;0.82;;;;;;;;;;5043885;28;20036;-87
2023/12/11 01:35:14;;;;;;;1.80;0.82;;;;;;;;;;5044727;28;20022;-87
2023/12/11 01:37:42;;;;;;;2.25;0.65;;;;;;;;;;5040548;28;20040;-85
2023/12/11 01:40:09;;;;;;;2.83;0.90;;;;;;;;;;5046481;28;20048;-86
2023/12/11 01:42:35;;;;;;;2.17;0.80;;;;;;;;;;5044306;28;20045;-86
2023/12/11 01:45:00;;;;;;;1.45;0.60;;;;;;;;;;5045740;28;20033;-85
2023/12/11 01:47:26;;;;;;;1.33;0.60;;;;;;;;;;5028868;28;20133;-86
2023/12/11 01:49:52;;;;;;;1.45;0.70;;;;;;;;;;5046342;28;20049;-87
2023/12/11 01:52:18;;;;;;;2.42;0.63;;;;;;;;;;5044160;28;20112;-86
2023/12/11 01:54:45;;;;;;;2.05;0.60;;;;;;;;;;5046459;28;20048;-86
2023/12/11 01:57:11;;;;;;;1.38;0.63;;;;;;;;;;5046806;28;20044;-86
2023/12/11 01:59:39;;;;;;;1.73;0.90;;;;;;;;;;5043039;28;20033;-86
2023/12/11 02:02:04;;;;;;;1.17;0.60;;;;;;;;;;5045163;28;20032;-86
2023/12/11 02:04:31;;;;;;;2.58;0.63;;;;;;;;;;5049278;28;20055;-85
2023/12/11 02:06:57;;;;;;;1.42;0.70;;;;;;;;;;5046845;28;20033;-86
2023/12/11 02:09:22;;;;;;;4.38;0.93;;;;;;;;;;5045506;28;20029;-86
2023/12/11 02:11:48;;;;;;;1.30;0.70;;;;;;;;;;5038853;28;20029;-86
2023/12/11 02:14:14;;;;;;;2.42;0.77;;;;;;;;;;5045618;28;20387;-86
2023/12/11 02:16:39;;;;;;;3.60;0.70;;;;;;;;;;5048368;28;20097;-87
2023/12/11 02:19:06;;;;;;;2.92;0.80;;;;;;;;;;5048027;28;20415;-86
2023/12/11 02:21:32;;;;;;;1.58;1.15;;;;;;;;;;5040931;28;20029;-85
2023/12/11 02:24:08;;;;;;;3.38;0.70;;;;;;;;;;5041660;28;20549;-86
2023/12/11 02:26:33;;;;;;;3.63;0.60;;;;;;;;;;5043882;28;20053;-86
2023/12/11 02:28:59;;;;;;;1.05;0.60;;;;;;;;;;5035713;28;20390;-87
2023/12/11 02:31:24;;;;;;;1.90;0.70;;;;;;;;;;5043684;28;20036;-87
2023/12/11 02:33:50;;;;;;;3.17;0.80;;;;;;;;;;5041749;28;20041;-86
2023/12/11 02:36:15;;;;;;;1.30;0.68;;;;;;;;;;5044674;28;20048;-87
2023/12/11 02:38:41;;;;;;;2.42;0.60;;;;;;;;;;5048308;28;20080;-86
2023/12/11 02:41:06;;;;;;;1.50;0.60;;;;;;;;;;5043923;28;20120;-87
2023/12/11 02:43:33;;;;;;;0.85;0.50;;;;;;;;;;5042953;28;20108;-86
2023/12/11 02:45:59;;;;;;;1.40;0.75;;;;;;;;;;5058087;28;20038;-87
2023/12/11 02:48:24;;;;;;;1.77;0.60;;;;;;;;;;5044705;28;20040;-87
2023/12/11 02:50:50;;;;;;;3.38;0.55;;;;;;;;;;5040999;28;20036;-87
2023/12/11 02:53:16;;;;;;;1.75;0.63;;;;;;;;;;5043884;28;20112;-86
2023/12/11 02:55:41;;;;;;;1.95;0.85;;;;;;;;;;5030239;28;20074;-85
2023/12/11 02:58:07;;;;;;;1.13;0.52;;;;;;;;;;5041918;28;20171;-86
2023/12/11 03:00:33;;;;;;;1.00;0.55;;;;;;;;;;5042579;28;20517;-86
2023/12/11 03:02:58;;;;;;;1.90;0.60;;;;;;;;;;5027463;28;20029;-87
2023/12/11 03:05:24;;;;;;;0.85;0.50;;;;;;;;;;5043134;28;20076;-87
2023/12/11 03:07:50;;;;;;;1.60;0.63;;;;;;;;;;5047087;28;20036;-87
2023/12/11 03:10:15;;;;;;;0.68;0.45;;;;;;;;;;5043145;28;20517;-86
2023/12/11 03:12:41;;;;;;;2.03;0.60;;;;;;;;;;5039355;28;20036;-86
2023/12/11 03:15:08;;;;;;;2.45;0.68;;;;;;;;;;5037441;28;20058;-86
2023/12/11 03:17:33;;;;;;;1.15;0.55;;;;;;;;;;5034027;28;20053;-86
2023/12/11 03:20:01;;;;;;;3.15;0.85;;;;;;;;;;5047487;28;20103;-86
2023/12/11 03:22:28;;;;;;;0.93;0.80;;;;;;;;;;5046667;28;20497;-86
2023/12/11 03:24:54;;;;;;;0.77;0.60;;;;;;;;;;5041438;28;20522;-87
2023/12/11 03:27:20;;;;;;;0.65;0.50;;;;;;;;;;5043318;28;20035;-87
2023/12/11 03:29:46;;;;;;;1.92;0.77;;;;;;;;;;5041473;28;20651;-86
2023/12/11 03:32:11;;;;;;;0.98;0.50;;;;;;;;;;5038127;28;20025;-86
2023/12/11 03:34:37;;;;;;;0.60;0.47;;;;;;;;;;5037151;28;20022;-86
2023/12/11 03:37:03;;;;;;;0.75;0.40;;;;;;;;;;5043436;28;20044;-86
2023/12/11 03:39:28;;;;;;;1.25;0.60;;;;;;;;;;5039552;28;20068;-86
2023/12/11 03:41:54;;;;;;;1.52;0.50;;;;;;;;;;5029629;28;20101;-87
2023/12/11 03:44:20;;;;;;;0.70;0.43;;;;;;;;;;5048223;28;20033;-86
2023/12/11 03:46:45;;;;;;;0.63;0.52;;;;;;;;;;5044169;28;20040;-87
2023/12/11 03:49:11;;;;;;;0.95;0.50;;;;;;;;;;5046374;28;20109;-86
2023/12/11 03:51:36;;;;;;;0.82;0.50;;;;;;;;;;5041424;28;20064;-86
2023/12/11 03:54:02;;;;;;;0.30;0.30;;;;;;;;;;5045837;28;20287;-86
2023/12/11 03:56:27;;;;;;;1.05;0.40;;;;;;;;;;5040871;28;20025;-86
2023/12/11 03:58:53;;;;;;;1.85;0.50;;;;;;;;;;5039267;28;20040;-87
2023/12/11 04:01:18;;;;;;;0.95;0.60;;;;;;;;;;5045177;28;20542;-87
2023/12/11 04:03:44;;;;;;;1.60;0.60;;;;;;;;;;5047653;28;20037;-87
2023/12/11 04:06:09;;;;;;;1.35;0.50;;;;;;;;;;5045455;28;20029;-87
2023/12/11 04:08:42;;;;;;;1.98;0.77;;;;;;;;;;5048229;28;20053;-86
2023/12/11 04:11:09;;;;;;;0.40;0.40;;;;;;;;;;5045660;28;20029;-87
2023/12/11 04:13:34;;;;;;;0.77;0.40;;;;;;;;;;5040974;28;20041;-87
2023/12/11 04:16:00;;;;;;;2.15;0.50;;;;;;;;;;5043080;28;20060;-86
2023/12/11 04:18:26;;;;;;;0.93;0.50;;;;;;;;;;5046693;28;20030;-87
2023/12/11 04:20:51;;;;;;;1.20;0.52;;;;;;;;;;5041618;28;20092;-87
2023/12/11 04:23:17;;;;;;;0.45;0.43;;;;;;;;;;5043950;28;20037;-87
2023/12/11 04:25:42;;;;;;;0.50;0.43;;;;;;;;;;5046483;28;21276;-86
2023/12/11 04:28:08;;;;;;;1.60;0.50;;;;;;;;;;5042866;28;20033;-87
2023/12/11 04:30:34;;;;;;;1.23;0.68;;;;;;;;;;5048625;28;20448;-87
2023/12/11 04:32:59;;;;;;;2.20;0.63;;;;;;;;;;5040266;28;20057;-87
2023/12/11 04:35:25;;;;;;;1.13;0.70;;;;;;;;;;5045475;28;20938;-87
2023/12/11 04:37:50;;;;;;;1.83;0.80;;;;;;;;;;5040019;28;20127;-87
2023/12/11 04:40:16;;;;;;;2.28;0.90;;;;;;;;;;5043391;28;20053;-88
2023/12/11 04:42:41;;;;;;;1.25;0.80;;;;;;;;;;5048201;28;20094;-87
2023/12/11 04:45:07;;;;;;;1.65;0.90;;;;;;;;;;5050225;28;20380;-87
2023/12/11 04:47:33;;;;;;;1.60;0.90;;;;;;;;;;5043206;28;20033;-87
2023/12/11 04:49:58;;;;;;;1.85;1.00;;;;;;;;;;5043842;28;20040;-87
2023/12/11 04:52:24;;;;;;;2.00;1.00;;;;;;;;;;5049345;22;20056;-78
2023/12/11 04:54:49;;;;;;;2.55;0.90;;;;;;;;;;5052117;28;20041;-79
2023/12/11 04:57:15;;;;;;;3.30;1.00;;;;;;;;;;5035158;28;20017;-79
2023/12/11 04:59:41;;;;;;;1.10;0.95;;;;;;;;;;5036025;28;20395;-79
2023/12/11 05:02:06;;;;;;;2.78;1.30;;;;;;;;;;5038408;28;20666;-79
2023/12/11 05:04:31;;;;;;;1.83;1.20;;;;;;;;;;5038350;28;20052;-79
2023/12/11 05:06:57;;;;;;;1.90;1.20;;;;;;;;;;5038120;28;20084;-79
2023/12/11 05:09:22;;;;;;;1.38;1.20;;;;;;;;;;5036673;28;20068;-79
2023/12/11 05:11:48;;;;;;;2.13;1.27;;;;;;;;;;5034625;28;20049;-78
2023/12/11 05:14:13;;;;;;;2.72;1.52;;;;;;;;;;5036216;28;20017;-78
2023/12/11 05:16:39;;;;;;;0.98;0.82;;;;;;;;;;5035694;28;20992;-79
2023/12/11 05:19:05;;;;;;;0.85;0.80;;;;;;;;;;5036159;28;20505;-79
2023/12/11 05:21:30;;;;;;;2.80;0.90;;;;;;;;;;5037052;28;20491;-79
2023/12/11 05:23:56;;;;;;;1.33;0.80;;;;;;;;;;5020520;28;20487;-79
2023/12/11 05:26:22;;;;;;;1.15;0.80;;;;;;;;;;5038193;28;20433;-79
2023/12/11 05:28:48;;;;;;;0.98;0.88;;;;;;;;;;5036587;28;20040;-78
2023/12/11 05:31:14;;;;;;;0.77;0.60;;;;;;;;;;5033311;28;20025;-78
2023/12/11 05:33:40;;;;;;;2.63;0.88;;;;;;;;;;5036132;28;20048;-77
2023/12/11 05:36:07;;;;;;;1.05;0.80;;;;;;;;;;5041662;28;20029;-79
2023/12/11 05:38:33;;;;;;;1.15;0.70;;;;;;;;;;5036190;28;20049;-79
2023/12/11 05:40:58;;;;;;;1.17;0.80;;;;;;;;;;5034920;28;20036;-80
2023/12/11 05:43:24;;;;;;;0.95;0.75;;;;;;;;;;5036738;28;20029;-80
2023/12/11 05:45:50;;;;;;;1.15;0.70;;;;;;;;;;5038575;28;20056;-79
2023/12/11 05:48:15;;;;;;;0.50;0.50;;;;;;;;;;5038485;28;20034;-79
2023/12/11 05:50:41;;;;;;;0.80;0.70;;;;;;;;;;5053474;28;20048;-79
2023/12/11 05:53:07;;;;;;;1.17;0.90;;;;;;;;;;5022526;28;20139;-78
2023/12/11 05:55:33;;;;;;;1.27;0.77;;;;;;;;;;5034372;28;20479;-79
2023/12/11 05:57:58;;;;;;;1.05;0.88;;;;;;;;;;5036071;28;20048;-78
2023/12/11 06:00:24;;;;;;;0.70;0.70;;;;;;;;;;5035708;28;20151;-78
2023/12/11 06:02:49;;;;;;;1.35;0.93;;;;;;;;;;5018295;28;20041;-78
2023/12/11 06:05:15;;;;;;;1.33;0.80;;;;;;;;;;5040055;28;20031;-79
2023/12/11 06:07:40;;;;;;;2.30;0.90;;;;;;;;;;5045581;28;20140;-80
2023/12/11 06:10:06;;;;;;;1.23;0.95;;;;;;;;;;5038795;28;20117;-80
2023/12/11 06:12:32;;;;;;;1.10;0.90;;;;;;;;;;5036495;28;20025;-78
2023/12/11 06:14:58;;;;;;;1.17;0.90;;;;;;;;;;5038375;28;20033;-80
2023/12/11 06:17:23;;;;;;;1.40;0.93;;;;;;;;;;5036038;28;20025;-80
2023/12/11 06:19:49;;;;;;;1.08;0.88;;;;;;;;;;5034781;28;20470;-79
2023/12/11 06:22:14;;;;;;;1.30;1.00;;;;;;;;;;5038637;28;20029;-80
2023/12/11 06:24:40;;;;;;;1.40;1.10;;;;;;;;;;5036661;28;20025;-80
2023/12/11 06:27:07;;;;;;;0.82;0.80;;;;;;;;;;5038668;28;20048;-81
2023/12/11 06:29:32;;;;;;;1.10;0.80;;;;;;;;;;5039068;28;20026;-77
2023/12/11 06:31:58;;;;;;;1.02;0.88;;;;;;;;;;5039784;28;20395;-81
2023/12/11 06:34:23;;;;;;;3.67;0.90;;;;;;;;;;5036480;28;20119;-83
2023/12/11 06:36:49;;;;;;;1.05;0.73;;;;;;;;;;5036191;28;20127;-81
2023/12/11 06:39:15;;;;;;;1.35;1.00;;;;;;;;;;5035643;28;20529;-82
2023/12/11 06:41:40;;;;;;;1.00;0.80;;;;;;;;;;5035736;28;20045;-81
2023/12/11 06:44:06;;;;;;;0.95;0.73;;;;;;;;;;5037386;28;20025;-79
2023/12/11 06:46:32;;;;;;;1.10;0.90;;;;;;;;;;5036754;28;20510;-80
2023/12/11 06:48:57;;;;;;;1.70;0.80;;;;;;;;;;5037749;28;20116;-79
2023/12/11 06:51:24;;;;;;;1.23;0.80;;;;;;;;;;5038875;28;20079;-81
2023/12/11 06:53:49;;;;;;;1.48;1.00;;;;;;;;;;5036156;28;20037;-80
2023/12/11 06:56:19;;;;;;;1.50;1.08;;;;;;;;;;5038018;28;20037;-79
2023/12/11 06:58:45;;;;;;;1.50;1.00;;;;;;;;;;5030249;28;20034;-79
2023/12/11 07:01:12;;;;;;;1.35;1.00;;;;;;;;;;5035037;28;20041;-79
2023/12/11 07:03:39;;;;;;;1.05;0.90;;;;;;;;;;5035645;28;20037;-79
2023/12/11 07:06:05;;;;;;;3.63;1.10;;;;;;;;;;5044628;28;20497;-79
2023/12/11 07:08:31;;;;;;;1.15;0.90;;;;;;;;;;5033583;28;20029;-78
2023/12/11 07:10:56;;;;;;;0.90;0.80;;;;;;;;;;5037492;28;20518;-79
2023/12/11 07:13:22;;;;;;;1.50;0.95;;;;;;;;;;5037503;28;20108;-78
2023/12/11 07:15:47;;;;;;;2.30;1.27;;;;;;;;;;5034040;28;20022;-78
2023/12/11 07:18:13;;;;;;;1.50;1.13;;;;;;;;;;5036577;28;20052;-78
2023/12/11 07:20:42;;;;;;;1.98;1.20;;;;;;;;;;5031532;28;20064;-78
2023/12/11 07:23:07;;;;;;;3.05;1.00;;;;;;;;;;5035791;28;20048;-81
2023/12/11 07:25:33;;;;;;;1.55;0.90;;;;;;;;;;5035147;28;20105;-80
2023/12/11 07:27:59;;;;;;;2.05;1.13;;;;;;;;;;5028722;28;20056;-79
2023/12/11 07:30:26;;;;;;;1.20;0.80;;;;;;;;;;5037089;28;20045;-79
2023/12/11 07:32:51;;;;;;;0.93;0.80;;;;;;;;;;5038020;28;20037;-80
2023/12/11 07:35:20;;;;;;;1.23;0.80;;;;;;;;;;5055122;28;20091;-81
2023/12/11 07:37:45;;;;;;;1.38;0.73;;;;;;;;;;5038438;28;20034;-81
2023/12/11 07:40:11;;;;;;;1.35;0.85;;;;;;;;;;5035492;28;20036;-80
2023/12/11 07:42:37;;;;;;;1.10;0.90;;;;;;;;;;5047774;28;20041;-80
2023/12/11 07:45:05;;;;;;;1.65;1.15;;;;;;;;;;5037652;28;20029;-80
2023/12/11 07:47:32;;;;;;;2.75;1.67;;;;;;;;;;5038405;28;20037;-79
2023/12/11 07:49:58;;;;;;;1.30;1.02;;;;;;;;;;5036889;28;20033;-81
2023/12/11 07:52:24;;;;;;;1.40;0.98;;;;;;;;;;5039146;28;20545;-80
2023/12/11 07:54:49;;;;;;;1.25;0.90;;;;;;;;;;5039257;28;20057;-80
2023/12/11 07:57:15;;;;;;;2.38;1.00;;;;;;;;;;5036706;28;20036;-80
2023/12/11 07:59:40;;;;;;;1.58;0.70;;;;;;;;;;5037699;28;20045;-80
2023/12/11 08:02:07;;;;;;;0.80;0.77;;;;;;;;;;5037363;28;20032;-80
2023/12/11 08:04:32;;;;;;;1.13;0.90;;;;;;;;;;5033948;28;20029;-79
2023/12/11 08:06:58;;;;;;;2.50;1.25;;;;;;;;;;5035915;28;20128;-80
2023/12/11 08:09:23;;;;;;;1.35;0.77;;;;;;;;;;5032969;28;20044;-79
2023/12/11 08:11:49;;;;;;;1.65;0.80;;;;;;;;;;5036839;28;20095;-78
2023/12/11 08:14:16;;;;;;;0.82;0.63;;;;;;;;;;5036219;28;20032;-82
2023/12/11 08:16:41;;;;;;;4.22;2.13;;;;;;;;;;5032575;28;20094;-79
2023/12/11 08:19:07;;;;;;;1.23;0.73;;;;;;;;;;5035703;28;20096;-78
2023/12/11 08:21:32;;;;;;;1.58;0.80;;;;;;;;;;5032643;28;20029;-78
2023/12/11 08:23:58;;;;;;;1.85;0.80;;;;;;;;;;5033312;28;20116;-78
2023/12/11 08:26:24;;;;;;;1.08;0.60;;;;;;;;;;5034399;28;20396;-79
2023/12/11 08:28:50;;;;;;;0.68;0.60;;;;;;;;;;5035239;28;20025;-78
2023/12/11 08:31:16;;;;;;;0.50;0.50;;;;;;;;;;5035517;28;20090;-79
2023/12/11 08:33:42;;;;;;;0.80;0.60;;;;;;;;;;5034436;28;20048;-79
2023/12/11 08:36:08;;;;;;;0.77;0.68;;;;;;;;;;5036532;28;20033;-79
2023/12/11 08:38:34;;;;;;;1.63;0.80;;;;;;;;;;5030862;28;20045;-79
2023/12/11 08:40:59;;;;;;;1.30;0.90;;;;;;;;;;5032578;28;20079;-78
2023/12/11 08:43:26;;;;;;;1.55;0.90;;;;;;;;;;5019461;28;20108;-79
2023/12/11 08:45:52;;;;;;;1.65;0.88;;;;;;;;;;5031266;28;20053;-79
2023/12/11 08:48:17;;;;;;;2.58;1.00;;;;;;;;;;5035252;28;20029;-79
2023/12/11 08:50:43;;;;;;;1.35;0.98;;;;;;;;;;5035789;28;20080;-79
2023/12/11 08:53:09;;;;;;;1.10;0.77;;;;;;;;;;5034486;28;20763;-78
2023/12/11 08:55:35;;;;;;;1.80;0.93;;;;;;;;;;5032940;28;20037;-77
2023/12/11 08:58:00;;;;;;;1.33;0.80;;;;;;;;;;5033782;28;20059;-80
2023/12/11 09:00:26;;;;;;;1.02;0.70;;;;;;;;;;5034546;28;20064;-78
2023/12/11 09:02:51;;;;;;;1.38;0.70;;;;;;;;;;5032294;28;20399;-79
2023/12/11 09:05:17;;;;;;;0.75;0.70;;;;;;;;;;5033506;28;20048;-78
2023/12/11 09:07:43;;;;;;;0.82;0.68;;;;;;;;;;5033858;28;20535;-81
2023/12/11 09:10:09;;;;;;;1.05;0.70;;;;;;;;;;5025849;28;20040;-79
2023/12/11 09:12:36;;;;;;;0.90;0.60;;;;;;;;;;5036165;28;20124;-80
2023/12/11 09:15:02;;;;;;;2.53;1.20;;;;;;;;;;5034553;28;20052;-79
2023/12/11 09:17:28;;;;;;;2.35;0.80;;;;;;;;;;5054250;28;20029;-78
2023/12/11 09:19:54;;;;;;;2.15;0.93;;;;;;;;;;5040800;28;20041;-79
2023/12/11 09:22:20;;;;;;;1.13;0.80;;;;;;;;;;5040727;28;20037;-79
2023/12/11 09:24:45;;;;;;;3.10;1.30;;;;;;;;;;5034396;28;20537;-79
2023/12/11 09:27:11;;;;;;;2.72;1.10;;;;;;;;;;5036113;28;20545;-79
2023/12/11 09:29:37;;;;;;;1.45;1.00;;;;;;;;;;5036416;28;20038;-78
2023/12/11 09:32:04;;;;;;;1.55;0.80;;;;;;;;;;5022644;28;20649;-77
2023/12/11 09:34:29;;;;;;;4.07;1.50;;;;;;;;;;5039008;28;20037;-78
2023/12/11 09:36:56;;;;;;;3.45;1.60;;;;;;;;;;5040808;28;20029;-79
2023/12/11 09:39:22;;;;;;;4.20;1.50;;;;;;;;;;5029326;28;20159;-78
2023/12/11 09:41:48;;;;;;;1.98;1.20;;;;;;;;;;5040047;28;20058;-80
2023/12/11 09:44:16;;;;;;;1.85;1.20;;;;;;;;;;5033994;28;20037;-79
2023/12/11 09:46:54;;;;;;;1.17;0.80;;;;;;;;;;5028733;28;20599;-80
2023/12/11 09:49:20;;;;;;;1.60;1.08;;;;;;;;;;5032395;28;20460;-78
2023/12/11 09:51:45;;;;;;;2.22;0.80;;;;;;;;;;5029421;28;20058;-79
2023/12/11 09:54:11;;;;;;;0.95;0.80;;;;;;;;;;5033646;28;20056;-78
2023/12/11 09:56:39;;;;;;;2.40;1.30;;;;;;;;;;5034755;28;20116;-81
2023/12/11 09:59:04;;;;;;;6.18;2.45;;;;;;;;;;5039167;28;20051;-79
2023/12/11 10:01:32;;;;;;;2.45;1.42;;;;;;;;;;5036638;28;20100;-80
2023/12/11 10:03:57;;;;;;;4.05;1.58;;;;;;;;;;5036178;28;20103;-80
2023/12/11 10:06:23;;;;;;;3.30;1.52;;;;;;;;;;5035219;28;20501;-81
2023/12/11 10:08:52;;;;;;;3.25;1.30;;;;;;;;;;5034578;28;20084;-81
2023/12/11 10:11:19;;;;;;;1.90;0.90;;;;;;;;;;5035741;28;20033;-82
2023/12/11 10:13:45;;;;;;;5.63;2.22;;;;;;;;;;5037865;28;20089;-82
2023/12/11 10:16:35;;;;;;;4.40;1.90;;;;;;;;;;5037346;28;20061;-80
2023/12/11 10:19:01;;;;;;;3.38;1.90;;;;;;;;;;5050683;28;20038;-80
2023/12/11 10:21:37;;;;;;;2.53;1.10;;;;;;;;;;5038154;28;20052;-82
2023/12/11 10:24:09;;;;;;;3.17;1.00;;;;;;;;;;5036193;28;20605;-82
2023/12/11 10:26:38;;;;;;;3.33;0.90;;;;;;;;;;5042360;28;20048;-82
2023/12/11 10:29:19;;;;;;;1.70;0.80;;;;;;;;;;5034343;28;20280;-82
2023/12/11 10:31:45;;;;;;;1.45;1.00;;;;;;;;;;5035254;28;20097;-81
2023/12/11 10:34:11;;;;;;;1.17;0.85;;;;;;;;;;5036542;28;20061;-81
2023/12/11 10:36:48;;;;;;;2.08;1.20;;;;;;;;;;5034954;28;20045;-81
2023/12/11 10:39:13;;;;;;;1.42;0.93;;;;;;;;;;5036090;28;20036;-83
2023/12/11 10:41:39;;;;;;;4.57;0.95;;;;;;;;;;5036317;28;20045;-80
2023/12/11 10:44:05;;;;;;;1.38;0.82;;;;;;;;;;5038057;28;20037;-81
2023/12/11 10:46:31;;;;;;;3.13;1.10;;;;;;;;;;5033847;28;20075;-80
2023/12/11 10:49:00;;;;;;;2.00;1.20;;;;;;;;;;5028961;28;20037;-80
2023/12/11 10:51:26;;;;;;;2.38;1.40;;;;;;;;;;5025818;28;20130;-80
2023/12/11 10:53:52;;;;;;;3.58;1.33;;;;;;;;;;5037405;28;20029;-80
2023/12/11 10:56:18;;;;;;;3.10;1.20;;;;;;;;;;5037839;28;20036;-80
2023/12/11 10:58:44;;;;;;;3.83;1.65;;;;;;;;;;5035842;28;20033;-78
2023/12/11 11:01:12;;;;;;;2.60;1.20;;;;;;;;;;5032293;28;20079;-81
2023/12/11 11:03:38;;;;;;;3.58;1.30;;;;;;;;;;5035190;28;20112;-80
2023/12/11 11:06:05;;;;;;;2.83;1.58;;;;;;;;;;5039173;28;20030;-81
2023/12/11 11:08:40;;;;;;;2.45;1.40;;;;;;;;;;5033902;28;20067;-81
2023/12/11 11:11:09;;;;;;;2.72;1.55;;;;;;;;;;5032547;28;20108;-85
2023/12/11 11:13:46;;;;;;;2.10;1.35;;;;;;;;;;5031725;28;20132;-85
2023/12/11 11:16:12;;;;;;;3.00;1.70;;;;;;;;;;5052886;28;20029;-79
2023/12/11 11:19:13;;;;;;;5.25;2.45;;;;;;;;;;5047335;28;20044;-84
2023/12/11 11:21:39;;;;;;;2.65;1.83;;;;;;;;;;4992771;28;20105;-82
2023/12/11 11:24:24;;;;;;;4.07;2.10;;;;;;;;;;5037381;28;20045;-83
2023/12/11 11:26:50;;;;;;;2.90;1.63;;;;;;;;;;5032882;28;20042;-82
2023/12/11 11:29:37;;;;;;;3.28;2.00;;;;;;;;;;5030188;28;20037;-81
2023/12/11 11:32:03;;;;;;;4.30;2.00;;;;;;;;;;5039528;28;20091;-82
2023/12/11 11:34:40;;;;;;;4.47;2.05;;;;;;;;;;5033793;28;20021;-83
2023/12/11 11:37:11;;;;;;;4.78;2.60;;;;;;;;;;5036344;28;20376;-83
2023/12/11 11:40:00;;;;;;;5.65;3.60;;;;;;;;;;5025530;28;20061;-83
2023/12/11 11:42:27;;;;;;;2.17;1.67;;;;;;;;;;5029999;28;20029;-81
2023/12/11 11:45:00;;;;;;;2.10;1.30;;;;;;;;;;5031892;28;20060;-81
2023/12/11 11:47:29;;;;;;;2.78;1.60;;;;;;;;;;5035348;28;20041;-83
2023/12/11 11:50:04;;;;;;;2.53;1.15;;;;;;;;;;5033176;28;20049;-82
2023/12/11 11:52:29;;;;;;;2.03;1.20;;;;;;;;;;5034529;28;20092;-82
2023/12/11 11:55:02;;;;;;;2.15;1.30;;;;;;;;;;5033971;28;20057;-84
2023/12/11 11:57:30;;;;;;;2.83;1.33;;;;;;;;;;5053700;28;20056;-84
2023/12/11 11:59:55;;;;;;;1.85;1.27;;;;;;;;;;5033901;28;20033;-85
2023/12/11 12:02:24;;;;;;;2.70;1.25;;;;;;;;;;5034927;28;20044;-85
2023/12/11 12:04:50;;;;;;;1.67;1.00;;;;;;;;;;5023503;28;20046;-86
2023/12/11 12:07:15;;;;;;;1.20;0.80;;;;;;;;;;5036451;28;20052;-85
2023/12/11 12:09:41;;;;;;;1.35;0.98;;;;;;;;;;5034314;28;20041;-84
2023/12/11 12:12:13;;;;;;;1.10;0.77;;;;;;;;;;5033911;28;20045;-81
2023/12/11 12:14:39;;;;;;;2.00;1.10;;;;;;;;;;5031559;28;20061;-85
2023/12/11 12:17:10;;;;;;;1.77;1.20;;;;;;;;;;5033908;28;20032;-84
2023/12/11 12:19:35;;;;;;;2.03;1.17;;;;;;;;;;5034441;28;20052;-84
2023/12/11 12:22:02;;;;;;;3.20;1.77;;;;;;;;;;5033769;28;20029;-82
2023/12/11 12:24:28;;;;;;;1.40;0.82;;;;;;;;;;5034579;28;20037;-80
2023/12/11 12:27:05;;;;;;;1.90;1.20;;;;;;;;;;5034673;28;20526;-86
2023/12/11 12:29:31;;;;;;;1.35;1.00;;;;;;;;;;5035601;28;20115;-85
2023/12/11 12:31:59;;;;;;;2.25;1.33;;;;;;;;;;5032835;28;20037;-83
2023/12/11 12:34:27;;;;;;;1.70;1.10;;;;;;;;;;5032624;28;20025;-86
2023/12/11 12:36:58;;;;;;;1.63;1.02;;;;;;;;;;5027643;28;20037;-83
2023/12/11 12:39:24;;;;;;;3.70;1.23;;;;;;;;;;5024440;28;20075;-82
2023/12/11 12:41:50;;;;;;;1.80;1.20;;;;;;;;;;5031096;28;20034;-86
2023/12/11 12:44:20;;;;;;;2.10;1.10;;;;;;;;;;5039725;28;20396;-84
2023/12/11 12:46:46;;;;;;;2.20;0.95;;;;;;;;;;5034573;28;20518;-85
2023/12/11 12:49:14;;;;;;;1.70;1.10;;;;;;;;;;5037458;28;20037;-86
2023/12/11 12:51:50;;;;;;;1.20;0.90;;;;;;;;;;5031020;28;20049;-85
2023/12/11 12:54:17;;;;;;;1.25;0.80;;;;;;;;;;5030120;28;20029;-85
2023/12/11 12:56:44;;;;;;;0.60;0.60;;;;;;;;;;5030939;28;20026;-85
2023/12/11 12:59:10;;;;;;;1.17;0.70;;;;;;;;;;5035066;28;20056;-86
2023/12/11 13:01:37;;;;;;;0.60;0.60;;;;;;;;;;5034032;28;20029;-85
2023/12/11 13:04:07;;;;;;;1.02;0.70;;;;;;;;;;5034344;28;20036;-85
2023/12/11 13:06:33;;;;;;;0.50;0.50;;;;;;;;;;5032263;28;20045;-83
2023/12/11 13:08:58;;;;;;;1.77;0.80;;;;;;;;;;5036292;28;20108;-85
2023/12/11 13:11:46;;;;;;;0.90;0.55;;;;;;;;;;5032564;28;20030;-86
2023/12/11 13:14:12;;;;;;;1.40;0.82;;;;;;;;;;5031190;28;20042;-85
2023/12/11 13:16:42;;;;;;;1.35;0.80;;;;;;;;;;5029884;28;20030;-84
2023/12/11 13:19:08;;;;;;;0.90;0.80;;;;;;;;;;5034555;28;20033;-82
2023/12/11 13:21:34;;;;;;;1.15;0.70;;;;;;;;;;5035512;28;20030;-81
2023/12/11 13:23:59;;;;;;;1.45;0.70;;;;;;;;;;5016779;28;20025;-84
2023/12/11 13:26:25;;;;;;;0.80;0.80;;;;;;;;;;5036331;28;20060;-85
2023/12/11 13:28:51;;;;;;;1.60;0.90;;;;;;;;;;5037063;28;20025;-85
2023/12/11 13:31:16;;;;;;;1.42;0.90;;;;;;;;;;5051560;28;20029;-84
2023/12/11 13:33:42;;;;;;;0.95;0.80;;;;;;;;;;5031695;28;20025;-82
2023/12/11 13:36:08;;;;;;;0.68;0.50;;;;;;;;;;5031536;28;20044;-84
2023/12/11 13:38:37;;;;;;;0.98;0.65;;;;;;;;;;5032260;28;20391;-85
2023/12/11 13:41:03;;;;;;;1.35;0.90;;;;;;;;;;5027716;28;20044;-82
2023/12/11 13:43:28;;;;;;;2.35;0.70;;;;;;;;;;5038323;28;20084;-81
2023/12/11 13:45:54;;;;;;;1.63;1.00;;;;;;;;;;5028913;28;20030;-84
2023/12/11 13:48:19;;;;;;;0.85;0.70;;;;;;;;;;5033813;28;20041;-84
2023/12/11 13:50:45;;;;;;;1.55;1.10;;;;;;;;;;5037219;28;20034;-82
2023/12/11 13:53:11;;;;;;;1.48;1.08;;;;;;;;;;5035773;28;20037;-83
2023/12/11 13:55:37;;;;;;;1.45;0.98;;;;;;;;;;5013936;28;20037;-83
2023/12/11 13:58:02;;;;;;;1.20;1.00;;;;;;;;;;5005624;28;20453;-84
2023/12/11 14:00:27;;;;;;;0.75;0.60;;;;;;;;;;5028742;28;20159;-85
2023/12/11 14:02:53;;;;;;;1.08;0.45;;;;;;;;;;5034710;28;20037;-87
2023/12/11 14:05:19;;;;;;;1.38;0.70;;;;;;;;;;5038269;28;20144;-86
2023/12/11 14:07:45;;;;;;;3.20;0.90;;;;;;;;;;5031512;28;20043;-86
2023/12/11 14:10:10;;;;;;;0.63;0.63;;;;;;;;;;5011995;28;20476;-85
2023/12/11 14:12:37;;;;;;;0.98;0.60;;;;;;;;;;5033255;28;20049;-87
2023/12/11 14:15:07;;;;;;;2.05;0.82;;;;;;;;;;5038524;28;20439;-88
2023/12/11 14:17:34;;;;;;;0.75;0.50;;;;;;;;;;5028503;28;20041;-87
2023/12/11 14:20:00;;;;;;;0.63;0.60;;;;;;;;;;5029799;28;20018;-84
2023/12/11 14:22:25;;;;;;;2.35;1.60;;;;;;;;;;5031275;28;20083;-84
2023/12/11 14:24:52;;;;;;;5.40;3.22;;;;;;;;;;5031370;28;20080;-86
2023/12/11 14:27:17;;;;;;;4.70;2.13;;;;;;;;;;5030032;28;20041;-86
2023/12/11 14:29:43;;;;;;;3.88;1.60;;;;;;;;;;5032136;28;20112;-86
2023/12/11 14:32:09;;;;;;;2.40;1.40;;;;;;;;;;5033104;28;20036;-85
2023/12/11 14:34:43;;;;;;;1.40;1.10;;;;;;;;;;5049964;28;20648;-86
2023/12/11 14:37:10;;;;;;;1.40;1.10;;;;;;;;;;5030022;28;20064;-84
2023/12/11 14:39:37;;;;;;;1.83;1.10;;;;;;;;;;5028930;28;20088;-86